sensor_id;sensor_type;location;lat;lon;timestamp;P1;durP1;ratioP1;P2;durP2;ratioP2
16593;SDS011;8410;52.532;13.336;2024-03-25T00:02:18;3.57;;;3.23;;
16593;SDS011;8410;52.532;13.336;2024-03-25T00:04:45;3.30;;;3.00;;
16593;SDS011;8410;52.532;13.336;2024-03-25T00:07:12;4.93;;;4.07;;
16593;SDS011;8410;52.532;13.336;2024-03-25T00:09:37;3.70;;;3.40;;
16593;SDS011;8410;52.532;13.336;2024-03-25T00:12:04;3.97;;;3.67;;
16593;SDS011;8410;52.532;13.336;2024-03-25T00:14:30;3.70;;;3.40;;
16593;SDS011;8410;52.532;13.336;2024-03-25T00:16:57;3.80;;;3.50;;
16593;SDS011;8410;52.532;13.336;2024-03-25T00:19:22;4.07;;;3.50;;
16593;SDS011;8410;52.532;13.336;2024-03-25T00:21:50;3.90;;;3.60;;
16593;SDS011;8410;52.532;13.336;2024-03-25T00:24:16;4.40;;;4.00;;
16593;SDS011;8410;52.532;13.336;2024-03-25T00:26:42;4.10;;;3.80;;
16593;SDS011;8410;52.532;13.336;2024-03-25T00:29:08;5.27;;;3.93;;
16593;SDS011;8410;52.532;13.336;2024-03-25T00:31:34;4.57;;;4.17;;
16593;SDS011;8410;52.532;13.336;2024-03-25T00:34:00;5.67;;;4.10;;
16593;SDS011;8410;52.532;13.336;2024-03-25T00:36:26;4.30;;;3.90;;
16593;SDS011;8410;52.532;13.336;2024-03-25T00:38:54;4.47;;;4.07;;
16593;SDS011;8410;52.532;13.336;2024-03-25T00:41:21;4.30;;;3.83;;
16593;SDS011;8410;52.532;13.336;2024-03-25T00:43:46;4.33;;;4.00;;
16593;SDS011;8410;52.532;13.336;2024-03-25T00:46:13;4.20;;;3.87;;
16593;SDS011;8410;52.532;13.336;2024-03-25T00:48:39;4.60;;;4.20;;
16593;SDS011;8410;52.532;13.336;2024-03-25T00:51:08;4.37;;;4.00;;
16593;SDS011;8410;52.532;13.336;2024-03-25T00:53:33;4.43;;;4.00;;
16593;SDS011;8410;52.532;13.336;2024-03-25T00:56:01;4.93;;;4.43;;
16593;SDS011;8410;52.532;13.336;2024-03-25T00:58:27;6.13;;;4.20;;
16593;SDS011;8410;52.532;13.336;2024-03-25T01:00:54;5.20;;;4.77;;
16593;SDS011;8410;52.532;13.336;2024-03-25T01:03:21;5.03;;;4.53;;
16593;SDS011;8410;52.532;13.336;2024-03-25T01:05:47;6.27;;;5.20;;
16593;SDS011;8410;52.532;13.336;2024-03-25T01:08:13;5.13;;;4.63;;
16593;SDS011;8410;52.532;13.336;2024-03-25T01:10:40;5.60;;;5.10;;
16593;SDS011;8410;52.532;13.336;2024-03-25T01:13:07;5.27;;;4.77;;
16593;SDS011;8410;52.532;13.336;2024-03-25T01:15:33;7.60;;;5.50;;
16593;SDS011;8410;52.532;13.336;2024-03-25T01:17:59;6.57;;;5.97;;
16593;SDS011;8410;52.532;13.336;2024-03-25T01:20:25;6.33;;;5.20;;
16593;SDS011;8410;52.532;13.336;2024-03-25T01:22:51;7.00;;;6.30;;
16593;SDS011;8410;52.532;13.336;2024-03-25T01:25:17;6.13;;;5.63;;
16593;SDS011;8410;52.532;13.336;2024-03-25T01:27:43;7.17;;;5.93;;
16593;SDS011;8410;52.532;13.336;2024-03-25T01:30:11;6.77;;;6.07;;
16593;SDS011;8410;52.532;13.336;2024-03-25T01:32:38;6.67;;;5.57;;
16593;SDS011;8410;52.532;13.336;2024-03-25T01:35:04;7.03;;;6.30;;
16593;SDS011;8410;52.532;13.336;2024-03-25T01:37:30;6.80;;;6.10;;
16593;SDS011;8410;52.532;13.336;2024-03-25T01:39:57;6.73;;;6.13;;
16593;SDS011;8410;52.532;13.336;2024-03-25T01:42:23;8.07;;;6.30;;
16593;SDS011;8410;52.532;13.336;2024-03-25T01:44:50;7.00;;;6.30;;
16593;SDS011;8410;52.532;13.336;2024-03-25T01:47:17;6.97;;;6.27;;
16593;SDS011;8410;52.532;13.336;2024-03-25T01:49:43;7.83;;;6.10;;
16593;SDS011;8410;52.532;13.336;2024-03-25T01:52:09;7.00;;;5.70;;
16593;SDS011;8410;52.532;13.336;2024-03-25T01:54:36;4.43;;;3.97;;
16593;SDS011;8410;52.532;13.336;2024-03-25T01:57:02;3.37;;;3.07;;
16593;SDS011;8410;52.532;13.336;2024-03-25T01:59:30;2.67;;;1.93;;
16593;SDS011;8410;52.532;13.336;2024-03-25T02:01:56;1.90;;;1.80;;
16593;SDS011;8410;52.532;13.336;2024-03-25T02:04:24;1.40;;;1.20;;
16593;SDS011;8410;52.532;13.336;2024-03-25T02:06:50;2.40;;;1.60;;
16593;SDS011;8410;52.532;13.336;2024-03-25T02:09:17;1.30;;;1.20;;
16593;SDS011;8410;52.532;13.336;2024-03-25T02:11:44;2.67;;;1.40;;
16593;SDS011;8410;52.532;13.336;2024-03-25T02:14:10;2.40;;;1.97;;
16593;SDS011;8410;52.532;13.336;2024-03-25T02:16:36;2.43;;;1.60;;
16593;SDS011;8410;52.532;13.336;2024-03-25T02:19:03;2.83;;;1.60;;
16593;SDS011;8410;52.532;13.336;2024-03-25T02:21:30;2.00;;;1.90;;
16593;SDS011;8410;52.532;13.336;2024-03-25T02:23:56;2.97;;;2.17;;
16593;SDS011;8410;52.532;13.336;2024-03-25T02:26:26;2.83;;;2.33;;
16593;SDS011;8410;52.532;13.336;2024-03-25T02:28:54;2.97;;;2.53;;
16593;SDS011;8410;52.532;13.336;2024-03-25T02:31:20;4.27;;;3.03;;
16593;SDS011;8410;52.532;13.336;2024-03-25T02:33:46;3.33;;;3.03;;
16593;SDS011;8410;52.532;13.336;2024-03-25T02:36:12;6.50;;;4.10;;
16593;SDS011;8410;52.532;13.336;2024-03-25T02:38:38;4.37;;;3.53;;
16593;SDS011;8410;52.532;13.336;2024-03-25T02:41:04;4.63;;;3.87;;
16593;SDS011;8410;52.532;13.336;2024-03-25T02:43:32;3.93;;;2.57;;
16593;SDS011;8410;52.532;13.336;2024-03-25T02:45:58;1.70;;;1.60;;
16593;SDS011;8410;52.532;13.336;2024-03-25T02:48:25;2.90;;;2.00;;
16593;SDS011;8410;52.532;13.336;2024-03-25T02:50:50;2.77;;;1.80;;
16593;SDS011;8410;52.532;13.336;2024-03-25T02:53:17;2.17;;;1.83;;
16593;SDS011;8410;52.532;13.336;2024-03-25T02:55:42;1.80;;;1.70;;
16593;SDS011;8410;52.532;13.336;2024-03-25T02:58:09;2.30;;;1.87;;
16593;SDS011;8410;52.532;13.336;2024-03-25T03:00:36;3.37;;;2.30;;
16593;SDS011;8410;52.532;13.336;2024-03-25T03:03:03;3.40;;;2.47;;
16593;SDS011;8410;52.532;13.336;2024-03-25T03:05:28;4.73;;;2.93;;
16593;SDS011;8410;52.532;13.336;2024-03-25T03:07:55;6.63;;;3.83;;
16593;SDS011;8410;52.532;13.336;2024-03-25T03:10:21;6.63;;;4.63;;
16593;SDS011;8410;52.532;13.336;2024-03-25T03:12:47;5.73;;;4.60;;
16593;SDS011;8410;52.532;13.336;2024-03-25T03:15:13;7.03;;;4.73;;
16593;SDS011;8410;52.532;13.336;2024-03-25T03:17:41;5.27;;;3.83;;
16593;SDS011;8410;52.532;13.336;2024-03-25T03:20:07;7.47;;;4.30;;
16593;SDS011;8410;52.532;13.336;2024-03-25T03:22:35;5.83;;;3.60;;
16593;SDS011;8410;52.532;13.336;2024-03-25T03:25:00;6.23;;;3.70;;
16593;SDS011;8410;52.532;13.336;2024-03-25T03:27:27;5.13;;;3.40;;
16593;SDS011;8410;52.532;13.336;2024-03-25T03:29:53;5.87;;;3.20;;
16593;SDS011;8410;52.532;13.336;2024-03-25T03:32:19;4.83;;;3.37;;
16593;SDS011;8410;52.532;13.336;2024-03-25T03:34:46;5.97;;;3.33;;
16593;SDS011;8410;52.532;13.336;2024-03-25T03:37:13;4.90;;;3.20;;
16593;SDS011;8410;52.532;13.336;2024-03-25T03:39:38;5.73;;;3.87;;
16593;SDS011;8410;52.532;13.336;2024-03-25T03:42:05;4.50;;;3.33;;
16593;SDS011;8410;52.532;13.336;2024-03-25T03:44:30;4.10;;;3.30;;
16593;SDS011;8410;52.532;13.336;2024-03-25T03:46:57;6.07;;;3.40;;
16593;SDS011;8410;52.532;13.336;2024-03-25T03:49:22;3.33;;;3.03;;
16593;SDS011;8410;52.532;13.336;2024-03-25T03:51:50;4.20;;;3.53;;
16593;SDS011;8410;52.532;13.336;2024-03-25T03:54:16;3.87;;;3.57;;
16593;SDS011;8410;52.532;13.336;2024-03-25T03:56:43;4.07;;;3.67;;
16593;SDS011;8410;52.532;13.336;2024-03-25T03:59:08;5.40;;;3.20;;
16593;SDS011;8410;52.532;13.336;2024-03-25T04:01:35;3.77;;;3.23;;
16593;SDS011;8410;52.532;13.336;2024-03-25T04:04:00;2.97;;;2.60;;
16593;SDS011;8410;52.532;13.336;2024-03-25T04:06:27;4.03;;;2.70;;
16593;SDS011;8410;52.532;13.336;2024-03-25T04:08:54;3.20;;;2.40;;
16593;SDS011;8410;52.532;13.336;2024-03-25T04:11:20;3.97;;;2.87;;
16593;SDS011;8410;52.532;13.336;2024-03-25T04:13:46;3.47;;;2.97;;
16593;SDS011;8410;52.532;13.336;2024-03-25T04:16:13;3.23;;;2.73;;
16593;SDS011;8410;52.532;13.336;2024-03-25T04:18:38;3.00;;;2.70;;
16593;SDS011;8410;52.532;13.336;2024-03-25T04:21:11;5.10;;;3.13;;
16593;SDS011;8410;52.532;13.336;2024-03-25T04:23:37;3.20;;;2.93;;
16593;SDS011;8410;52.532;13.336;2024-03-25T04:26:04;3.90;;;2.90;;
16593;SDS011;8410;52.532;13.336;2024-03-25T04:28:32;3.03;;;2.63;;
16593;SDS011;8410;52.532;13.336;2024-03-25T04:30:59;3.53;;;2.67;;
16593;SDS011;8410;52.532;13.336;2024-03-25T04:33:24;3.80;;;2.90;;
16593;SDS011;8410;52.532;13.336;2024-03-25T04:35:51;5.73;;;3.00;;
16593;SDS011;8410;52.532;13.336;2024-03-25T04:38:17;5.00;;;3.73;;
16593;SDS011;8410;52.532;13.336;2024-03-25T04:40:42;3.67;;;3.30;;
16593;SDS011;8410;52.532;13.336;2024-03-25T04:43:10;5.37;;;4.27;;
16593;SDS011;8410;52.532;13.336;2024-03-25T04:45:36;5.80;;;4.17;;
16593;SDS011;8410;52.532;13.336;2024-03-25T04:48:02;4.80;;;3.90;;
16593;SDS011;8410;52.532;13.336;2024-03-25T04:50:28;5.80;;;3.90;;
16593;SDS011;8410;52.532;13.336;2024-03-25T04:52:53;4.43;;;3.40;;
16593;SDS011;8410;52.532;13.336;2024-03-25T04:55:19;8.63;;;4.83;;
16593;SDS011;8410;52.532;13.336;2024-03-25T04:57:45;7.30;;;4.23;;
16593;SDS011;8410;52.532;13.336;2024-03-25T05:00:12;7.83;;;4.27;;
16593;SDS011;8410;52.532;13.336;2024-03-25T05:02:39;5.93;;;4.57;;
16593;SDS011;8410;52.532;13.336;2024-03-25T05:05:05;5.27;;;4.70;;
16593;SDS011;8410;52.532;13.336;2024-03-25T05:07:31;7.10;;;4.77;;
16593;SDS011;8410;52.532;13.336;2024-03-25T05:09:56;4.37;;;3.97;;
16593;SDS011;8410;52.532;13.336;2024-03-25T05:12:22;5.83;;;3.80;;
16593;SDS011;8410;52.532;13.336;2024-03-25T05:14:48;5.57;;;3.47;;
16593;SDS011;8410;52.532;13.336;2024-03-25T05:17:15;4.63;;;3.40;;
16593;SDS011;8410;52.532;13.336;2024-03-25T05:19:41;4.67;;;3.47;;
16593;SDS011;8410;52.532;13.336;2024-03-25T05:22:07;5.43;;;3.37;;
16593;SDS011;8410;52.532;13.336;2024-03-25T05:24:32;8.20;;;3.97;;
16593;SDS011;8410;52.532;13.336;2024-03-25T05:26:58;7.73;;;3.83;;
16593;SDS011;8410;52.532;13.336;2024-03-25T05:29:24;6.10;;;3.53;;
16593;SDS011;8410;52.532;13.336;2024-03-25T05:31:56;3.97;;;3.67;;
16593;SDS011;8410;52.532;13.336;2024-03-25T05:34:24;4.53;;;3.60;;
16593;SDS011;8410;52.532;13.336;2024-03-25T05:36:50;5.23;;;4.23;;
16593;SDS011;8410;52.532;13.336;2024-03-25T05:39:16;8.13;;;4.27;;
16593;SDS011;8410;52.532;13.336;2024-03-25T05:41:42;7.00;;;4.33;;
16593;SDS011;8410;52.532;13.336;2024-03-25T05:44:08;7.60;;;4.40;;
16593;SDS011;8410;52.532;13.336;2024-03-25T05:46:33;7.23;;;4.27;;
16593;SDS011;8410;52.532;13.336;2024-03-25T05:49:01;6.93;;;4.50;;
16593;SDS011;8410;52.532;13.336;2024-03-25T05:51:29;9.30;;;5.23;;
16593;SDS011;8410;52.532;13.336;2024-03-25T05:53:55;6.93;;;5.20;;
16593;SDS011;8410;52.532;13.336;2024-03-25T05:56:20;6.43;;;4.80;;
16593;SDS011;8410;52.532;13.336;2024-03-25T05:58:46;7.80;;;4.60;;
16593;SDS011;8410;52.532;13.336;2024-03-25T06:01:12;11.17;;;4.33;;
16593;SDS011;8410;52.532;13.336;2024-03-25T06:03:38;8.73;;;5.00;;
16593;SDS011;8410;52.532;13.336;2024-03-25T06:06:03;11.57;;;4.90;;
16593;SDS011;8410;52.532;13.336;2024-03-25T06:08:30;7.87;;;4.60;;
16593;SDS011;8410;52.532;13.336;2024-03-25T06:11:00;7.63;;;4.17;;
16593;SDS011;8410;52.532;13.336;2024-03-25T06:13:26;10.10;;;4.80;;
16593;SDS011;8410;52.532;13.336;2024-03-25T06:15:52;10.10;;;6.30;;
16593;SDS011;8410;52.532;13.336;2024-03-25T06:18:18;12.20;;;4.33;;
16593;SDS011;8410;52.532;13.336;2024-03-25T06:20:43;7.57;;;4.63;;
16593;SDS011;8410;52.532;13.336;2024-03-25T06:23:09;6.30;;;3.87;;
16593;SDS011;8410;52.532;13.336;2024-03-25T06:25:36;7.87;;;5.03;;
16593;SDS011;8410;52.532;13.336;2024-03-25T06:28:03;7.60;;;4.10;;
16593;SDS011;8410;52.532;13.336;2024-03-25T06:30:29;5.93;;;4.13;;
16593;SDS011;8410;52.532;13.336;2024-03-25T06:33:13;5.13;;;3.60;;
16593;SDS011;8410;52.532;13.336;2024-03-25T06:35:57;5.97;;;3.97;;
16593;SDS011;8410;52.532;13.336;2024-03-25T06:38:23;7.63;;;4.07;;
16593;SDS011;8410;52.532;13.336;2024-03-25T06:40:50;7.80;;;3.97;;
16593;SDS011;8410;52.532;13.336;2024-03-25T06:43:16;6.63;;;3.57;;
16593;SDS011;8410;52.532;13.336;2024-03-25T06:45:41;7.57;;;3.90;;
16593;SDS011;8410;52.532;13.336;2024-03-25T06:48:07;6.90;;;4.33;;
16593;SDS011;8410;52.532;13.336;2024-03-25T06:50:33;7.33;;;3.77;;
16593;SDS011;8410;52.532;13.336;2024-03-25T06:52:58;7.53;;;3.80;;
16593;SDS011;8410;52.532;13.336;2024-03-25T06:55:24;7.40;;;3.53;;
16593;SDS011;8410;52.532;13.336;2024-03-25T06:57:51;6.07;;;3.43;;
16593;SDS011;8410;52.532;13.336;2024-03-25T07:00:17;6.67;;;3.70;;
16593;SDS011;8410;52.532;13.336;2024-03-25T07:02:43;5.47;;;4.00;;
16593;SDS011;8410;52.532;13.336;2024-03-25T07:05:09;7.33;;;3.80;;
16593;SDS011;8410;52.532;13.336;2024-03-25T07:07:35;5.63;;;3.50;;
16593;SDS011;8410;52.532;13.336;2024-03-25T07:10:00;6.40;;;3.80;;
16593;SDS011;8410;52.532;13.336;2024-03-25T07:12:26;4.63;;;3.90;;
16593;SDS011;8410;52.532;13.336;2024-03-25T07:14:53;5.87;;;3.93;;
16593;SDS011;8410;52.532;13.336;2024-03-25T07:17:19;5.77;;;3.93;;
16593;SDS011;8410;52.532;13.336;2024-03-25T07:19:46;6.83;;;3.93;;
16593;SDS011;8410;52.532;13.336;2024-03-25T07:22:12;6.43;;;4.33;;
16593;SDS011;8410;52.532;13.336;2024-03-25T07:24:38;7.17;;;3.80;;
16593;SDS011;8410;52.532;13.336;2024-03-25T07:27:03;5.73;;;3.57;;
16593;SDS011;8410;52.532;13.336;2024-03-25T07:29:29;4.90;;;3.40;;
16593;SDS011;8410;52.532;13.336;2024-03-25T07:31:56;4.57;;;3.50;;
16593;SDS011;8410;52.532;13.336;2024-03-25T07:34:22;5.37;;;3.27;;
16593;SDS011;8410;52.532;13.336;2024-03-25T07:36:48;5.27;;;3.50;;
16593;SDS011;8410;52.532;13.336;2024-03-25T07:39:13;5.20;;;3.20;;
16593;SDS011;8410;52.532;13.336;2024-03-25T07:41:39;5.77;;;3.33;;
16593;SDS011;8410;52.532;13.336;2024-03-25T07:44:05;5.10;;;3.10;;
16593;SDS011;8410;52.532;13.336;2024-03-25T07:46:31;4.13;;;3.10;;
16593;SDS011;8410;52.532;13.336;2024-03-25T07:48:58;5.30;;;3.20;;
16593;SDS011;8410;52.532;13.336;2024-03-25T07:51:24;4.20;;;3.13;;
16593;SDS011;8410;52.532;13.336;2024-03-25T07:53:50;4.60;;;3.10;;
16593;SDS011;8410;52.532;13.336;2024-03-25T07:56:15;6.10;;;3.60;;
16593;SDS011;8410;52.532;13.336;2024-03-25T07:58:41;6.03;;;3.57;;
16593;SDS011;8410;52.532;13.336;2024-03-25T08:01:07;4.53;;;3.33;;
16593;SDS011;8410;52.532;13.336;2024-03-25T08:03:33;5.13;;;3.50;;
16593;SDS011;8410;52.532;13.336;2024-03-25T08:06:00;5.73;;;3.87;;
16593;SDS011;8410;52.532;13.336;2024-03-25T08:08:28;4.90;;;3.50;;
16593;SDS011;8410;52.532;13.336;2024-03-25T08:10:56;4.47;;;3.67;;
16593;SDS011;8410;52.532;13.336;2024-03-25T08:13:22;5.73;;;3.63;;
16593;SDS011;8410;52.532;13.336;2024-03-25T08:16:18;5.80;;;4.13;;
16593;SDS011;8410;52.532;13.336;2024-03-25T08:18:52;4.13;;;3.73;;
16593;SDS011;8410;52.532;13.336;2024-03-25T08:21:25;5.70;;;4.07;;
16593;SDS011;8410;52.532;13.336;2024-03-25T08:24:35;6.23;;;4.57;;
16593;SDS011;8410;52.532;13.336;2024-03-25T08:27:11;6.30;;;4.67;;
16593;SDS011;8410;52.532;13.336;2024-03-25T08:29:45;5.90;;;4.40;;
16593;SDS011;8410;52.532;13.336;2024-03-25T08:32:26;6.43;;;4.37;;
16593;SDS011;8410;52.532;13.336;2024-03-25T08:35:01;6.27;;;4.43;;
16593;SDS011;8410;52.532;13.336;2024-03-25T08:37:29;5.73;;;3.60;;
16593;SDS011;8410;52.532;13.336;2024-03-25T08:39:55;4.97;;;3.77;;
16593;SDS011;8410;52.532;13.336;2024-03-25T08:42:27;6.93;;;4.33;;
16593;SDS011;8410;52.532;13.336;2024-03-25T08:44:56;6.43;;;4.17;;
16593;SDS011;8410;52.532;13.336;2024-03-25T08:47:23;6.00;;;4.63;;
16593;SDS011;8410;52.532;13.336;2024-03-25T08:49:51;5.23;;;4.20;;
16593;SDS011;8410;52.532;13.336;2024-03-25T08:52:32;5.83;;;4.43;;
16593;SDS011;8410;52.532;13.336;2024-03-25T08:55:04;4.50;;;3.90;;
16593;SDS011;8410;52.532;13.336;2024-03-25T08:57:39;4.80;;;3.83;;
16593;SDS011;8410;52.532;13.336;2024-03-25T09:00:08;6.67;;;4.20;;
16593;SDS011;8410;52.532;13.336;2024-03-25T09:02:37;4.90;;;3.70;;
16593;SDS011;8410;52.532;13.336;2024-03-25T09:05:21;6.30;;;3.80;;
16593;SDS011;8410;52.532;13.336;2024-03-25T09:07:57;5.23;;;3.93;;
16593;SDS011;8410;52.532;13.336;2024-03-25T09:10:34;4.90;;;3.97;;
16593;SDS011;8410;52.532;13.336;2024-03-25T09:13:23;4.13;;;3.73;;
16593;SDS011;8410;52.532;13.336;2024-03-25T09:15:53;4.80;;;3.40;;
16593;SDS011;8410;52.532;13.336;2024-03-25T09:18:25;4.17;;;3.40;;
16593;SDS011;8410;52.532;13.336;2024-03-25T09:21:11;5.00;;;3.83;;
16593;SDS011;8410;52.532;13.336;2024-03-25T09:23:48;8.60;;;4.33;;
16593;SDS011;8410;52.532;13.336;2024-03-25T09:26:16;4.63;;;3.70;;
16593;SDS011;8410;52.532;13.336;2024-03-25T09:28:48;4.20;;;3.30;;
16593;SDS011;8410;52.532;13.336;2024-03-25T09:31:14;5.37;;;4.00;;
16593;SDS011;8410;52.532;13.336;2024-03-25T09:34:03;6.13;;;3.70;;
16593;SDS011;8410;52.532;13.336;2024-03-25T09:36:41;6.03;;;3.67;;
16593;SDS011;8410;52.532;13.336;2024-03-25T09:42:03;5.77;;;4.13;;
16593;SDS011;8410;52.532;13.336;2024-03-25T09:44:47;5.53;;;3.53;;
16593;SDS011;8410;52.532;13.336;2024-03-25T09:47:15;3.87;;;3.30;;
16593;SDS011;8410;52.532;13.336;2024-03-25T09:49:44;6.67;;;3.53;;
16593;SDS011;8410;52.532;13.336;2024-03-25T09:52:33;6.47;;;3.73;;
16593;SDS011;8410;52.532;13.336;2024-03-25T09:55:04;6.10;;;2.90;;
16593;SDS011;8410;52.532;13.336;2024-03-25T09:57:42;5.13;;;3.33;;
16593;SDS011;8410;52.532;13.336;2024-03-25T10:00:11;4.73;;;3.13;;
16593;SDS011;8410;52.532;13.336;2024-03-25T10:02:40;4.87;;;2.80;;
16593;SDS011;8410;52.532;13.336;2024-03-25T10:05:15;6.87;;;3.30;;
16593;SDS011;8410;52.532;13.336;2024-03-25T10:07:41;4.33;;;3.23;;
16593;SDS011;8410;52.532;13.336;2024-03-25T10:10:18;6.97;;;4.77;;
16593;SDS011;8410;52.532;13.336;2024-03-25T10:12:46;3.93;;;3.17;;
16593;SDS011;8410;52.532;13.336;2024-03-25T10:15:26;3.77;;;2.90;;
16593;SDS011;8410;52.532;13.336;2024-03-25T10:18:07;5.07;;;2.70;;
16593;SDS011;8410;52.532;13.336;2024-03-25T10:20:37;4.27;;;3.00;;
16593;SDS011;8410;52.532;13.336;2024-03-25T10:23:15;3.17;;;2.27;;
16593;SDS011;8410;52.532;13.336;2024-03-25T10:25:51;4.30;;;2.30;;
16593;SDS011;8410;52.532;13.336;2024-03-25T10:28:22;4.60;;;2.10;;
16593;SDS011;8410;52.532;13.336;2024-03-25T10:30:54;3.93;;;2.13;;
16593;SDS011;8410;52.532;13.336;2024-03-25T10:33:38;3.60;;;2.10;;
16593;SDS011;8410;52.532;13.336;2024-03-25T10:36:12;2.63;;;1.80;;
16593;SDS011;8410;52.532;13.336;2024-03-25T10:38:44;2.73;;;2.10;;
16593;SDS011;8410;52.532;13.336;2024-03-25T10:41:22;4.57;;;2.20;;
16593;SDS011;8410;52.532;13.336;2024-03-25T10:43:52;4.27;;;2.30;;
16593;SDS011;8410;52.532;13.336;2024-03-25T10:46:27;4.20;;;2.00;;
16593;SDS011;8410;52.532;13.336;2024-03-25T10:49:01;3.07;;;2.20;;
16593;SDS011;8410;52.532;13.336;2024-03-25T10:51:45;2.83;;;1.93;;
16593;SDS011;8410;52.532;13.336;2024-03-25T10:54:16;2.73;;;1.87;;
16593;SDS011;8410;52.532;13.336;2024-03-25T10:56:46;2.43;;;2.00;;
16593;SDS011;8410;52.532;13.336;2024-03-25T10:59:19;4.07;;;1.60;;
16593;SDS011;8410;52.532;13.336;2024-03-25T11:02:02;3.03;;;2.40;;
16593;SDS011;8410;52.532;13.336;2024-03-25T11:04:28;4.30;;;3.03;;
16593;SDS011;8410;52.532;13.336;2024-03-25T11:07:08;3.60;;;2.20;;
16593;SDS011;8410;52.532;13.336;2024-03-25T11:09:41;3.37;;;1.77;;
16593;SDS011;8410;52.532;13.336;2024-03-25T11:12:12;3.47;;;1.60;;
16593;SDS011;8410;52.532;13.336;2024-03-25T11:14:56;2.97;;;1.73;;
16593;SDS011;8410;52.532;13.336;2024-03-25T11:17:32;2.33;;;1.80;;
16593;SDS011;8410;52.532;13.336;2024-03-25T11:20:18;3.83;;;1.93;;
16593;SDS011;8410;52.532;13.336;2024-03-25T11:22:48;2.77;;;1.80;;
16593;SDS011;8410;52.532;13.336;2024-03-25T11:25:16;4.63;;;2.10;;
16593;SDS011;8410;52.532;13.336;2024-03-25T11:27:44;1.70;;;1.40;;
16593;SDS011;8410;52.532;13.336;2024-03-25T11:30:16;3.03;;;1.80;;
16593;SDS011;8410;52.532;13.336;2024-03-25T11:32:45;2.30;;;2.10;;
16593;SDS011;8410;52.532;13.336;2024-03-25T11:35:17;5.37;;;2.00;;
16593;SDS011;8410;52.532;13.336;2024-03-25T11:37:43;4.07;;;1.90;;
16593;SDS011;8410;52.532;13.336;2024-03-25T11:40:13;3.03;;;1.73;;
16593;SDS011;8410;52.532;13.336;2024-03-25T11:42:44;1.77;;;1.27;;
16593;SDS011;8410;52.532;13.336;2024-03-25T11:45:14;3.50;;;1.87;;
16593;SDS011;8410;52.532;13.336;2024-03-25T11:47:45;3.37;;;1.40;;
16593;SDS011;8410;52.532;13.336;2024-03-25T11:50:15;5.57;;;1.73;;
16593;SDS011;8410;52.532;13.336;2024-03-25T11:52:42;2.10;;;1.57;;
16593;SDS011;8410;52.532;13.336;2024-03-25T11:55:09;1.70;;;1.50;;
16593;SDS011;8410;52.532;13.336;2024-03-25T11:57:41;2.73;;;1.40;;
16593;SDS011;8410;52.532;13.336;2024-03-25T12:00:12;3.33;;;1.87;;
16593;SDS011;8410;52.532;13.336;2024-03-25T12:02:39;2.70;;;1.40;;
16593;SDS011;8410;52.532;13.336;2024-03-25T12:05:11;3.10;;;1.87;;
16593;SDS011;8410;52.532;13.336;2024-03-25T12:07:40;2.70;;;1.70;;
16593;SDS011;8410;52.532;13.336;2024-03-25T12:10:10;2.83;;;1.73;;
16593;SDS011;8410;52.532;13.336;2024-03-25T12:12:58;2.60;;;1.60;;
16593;SDS011;8410;52.532;13.336;2024-03-25T12:15:25;2.63;;;1.57;;
16593;SDS011;8410;52.532;13.336;2024-03-25T12:17:51;3.43;;;1.43;;
16593;SDS011;8410;52.532;13.336;2024-03-25T12:20:17;6.80;;;1.50;;
16593;SDS011;8410;52.532;13.336;2024-03-25T12:22:43;3.53;;;1.67;;
16593;SDS011;8410;52.532;13.336;2024-03-25T12:25:09;2.60;;;1.27;;
16593;SDS011;8410;52.532;13.336;2024-03-25T12:27:35;2.57;;;1.33;;
16593;SDS011;8410;52.532;13.336;2024-03-25T12:30:04;3.27;;;1.60;;
16593;SDS011;8410;52.532;13.336;2024-03-25T12:32:35;2.17;;;1.63;;
16593;SDS011;8410;52.532;13.336;2024-03-25T12:35:02;2.40;;;1.53;;
16593;SDS011;8410;52.532;13.336;2024-03-25T12:37:28;2.87;;;1.30;;
16593;SDS011;8410;52.532;13.336;2024-03-25T12:39:54;3.17;;;1.60;;
16593;SDS011;8410;52.532;13.336;2024-03-25T12:42:20;3.77;;;1.40;;
16593;SDS011;8410;52.532;13.336;2024-03-25T12:44:45;2.70;;;1.50;;
16593;SDS011;8410;52.532;13.336;2024-03-25T12:47:12;1.97;;;1.40;;
16593;SDS011;8410;52.532;13.336;2024-03-25T12:49:38;1.53;;;1.43;;
16593;SDS011;8410;52.532;13.336;2024-03-25T12:52:04;2.40;;;1.50;;
16593;SDS011;8410;52.532;13.336;2024-03-25T12:54:31;2.80;;;1.40;;
16593;SDS011;8410;52.532;13.336;2024-03-25T12:56:57;2.23;;;1.40;;
16593;SDS011;8410;52.532;13.336;2024-03-25T12:59:23;4.17;;;1.80;;
16593;SDS011;8410;52.532;13.336;2024-03-25T13:01:49;1.63;;;1.40;;
16593;SDS011;8410;52.532;13.336;2024-03-25T13:04:16;2.47;;;1.53;;
16593;SDS011;8410;52.532;13.336;2024-03-25T13:06:42;2.93;;;1.30;;
16593;SDS011;8410;52.532;13.336;2024-03-25T13:09:07;4.00;;;1.70;;
16593;SDS011;8410;52.532;13.336;2024-03-25T13:11:33;1.80;;;1.30;;
16593;SDS011;8410;52.532;13.336;2024-03-25T13:13:59;3.03;;;1.40;;
16593;SDS011;8410;52.532;13.336;2024-03-25T13:16:25;1.70;;;1.30;;
16593;SDS011;8410;52.532;13.336;2024-03-25T13:18:50;1.70;;;1.23;;
16593;SDS011;8410;52.532;13.336;2024-03-25T13:21:17;1.50;;;1.37;;
16593;SDS011;8410;52.532;13.336;2024-03-25T13:23:43;2.43;;;1.33;;
16593;SDS011;8410;52.532;13.336;2024-03-25T13:26:09;3.50;;;1.20;;
16593;SDS011;8410;52.532;13.336;2024-03-25T13:28:34;2.67;;;1.33;;
16593;SDS011;8410;52.532;13.336;2024-03-25T13:31:00;1.73;;;1.33;;
16593;SDS011;8410;52.532;13.336;2024-03-25T13:33:26;1.67;;;1.27;;
16593;SDS011;8410;52.532;13.336;2024-03-25T13:35:51;2.33;;;1.00;;
16593;SDS011;8410;52.532;13.336;2024-03-25T13:38:18;1.47;;;1.10;;
16593;SDS011;8410;52.532;13.336;2024-03-25T13:40:44;1.23;;;1.10;;
16593;SDS011;8410;52.532;13.336;2024-03-25T13:43:10;2.00;;;1.30;;
16593;SDS011;8410;52.532;13.336;2024-03-25T13:45:35;1.70;;;1.37;;
16593;SDS011;8410;52.532;13.336;2024-03-25T13:48:01;4.30;;;1.20;;
16593;SDS011;8410;52.532;13.336;2024-03-25T13:50:27;1.60;;;1.20;;
16593;SDS011;8410;52.532;13.336;2024-03-25T13:52:53;1.77;;;0.90;;
16593;SDS011;8410;52.532;13.336;2024-03-25T13:55:20;1.67;;;1.20;;
16593;SDS011;8410;52.532;13.336;2024-03-25T13:57:46;1.57;;;1.07;;
16593;SDS011;8410;52.532;13.336;2024-03-25T14:00:12;2.27;;;1.27;;
16593;SDS011;8410;52.532;13.336;2024-03-25T14:02:38;4.20;;;1.53;;
16593;SDS011;8410;52.532;13.336;2024-03-25T14:05:04;2.10;;;1.33;;
16593;SDS011;8410;52.532;13.336;2024-03-25T14:07:30;1.97;;;1.77;;
16593;SDS011;8410;52.532;13.336;2024-03-25T14:09:56;1.33;;;1.20;;
16593;SDS011;8410;52.532;13.336;2024-03-25T14:12:23;2.43;;;1.30;;
16593;SDS011;8410;52.532;13.336;2024-03-25T14:14:49;2.40;;;1.10;;
16593;SDS011;8410;52.532;13.336;2024-03-25T14:17:14;2.70;;;1.53;;
16593;SDS011;8410;52.532;13.336;2024-03-25T14:19:40;1.97;;;1.23;;
16593;SDS011;8410;52.532;13.336;2024-03-25T14:22:06;2.53;;;1.20;;
16593;SDS011;8410;52.532;13.336;2024-03-25T14:24:32;3.00;;;1.43;;
16593;SDS011;8410;52.532;13.336;2024-03-25T14:26:58;2.63;;;1.47;;
16593;SDS011;8410;52.532;13.336;2024-03-25T14:29:25;3.30;;;2.40;;
16593;SDS011;8410;52.532;13.336;2024-03-25T14:31:50;1.53;;;1.30;;
16593;SDS011;8410;52.532;13.336;2024-03-25T14:34:16;1.90;;;1.47;;
16593;SDS011;8410;52.532;13.336;2024-03-25T14:36:42;2.90;;;1.40;;
16593;SDS011;8410;52.532;13.336;2024-03-25T14:39:07;5.10;;;4.07;;
16593;SDS011;8410;52.532;13.336;2024-03-25T14:41:38;4.40;;;3.10;;
16593;SDS011;8410;52.532;13.336;2024-03-25T14:44:04;2.33;;;1.50;;
16593;SDS011;8410;52.532;13.336;2024-03-25T14:46:31;2.70;;;2.07;;
16593;SDS011;8410;52.532;13.336;2024-03-25T14:48:57;2.73;;;1.87;;
16593;SDS011;8410;52.532;13.336;2024-03-25T14:51:23;1.83;;;1.50;;
16593;SDS011;8410;52.532;13.336;2024-03-25T14:53:49;2.93;;;1.50;;
16593;SDS011;8410;52.532;13.336;2024-03-25T14:56:14;3.80;;;1.47;;
16593;SDS011;8410;52.532;13.336;2024-03-25T14:58:40;2.10;;;1.50;;